Time;durP1;ratioP1;P1;durP2;ratioP2;P2;SDS_P1;SDS_P2;PMS_P1;PMS_P2;Temp;Humidity;BMP_temperature;BMP_pressure;BME280_temperature;BME280_humidity;BME280_pressure;Samples;Min_cycle;Max_cycle;Signal;HPM_P1;HPM_P2
2022/10/13 00:00:04;;;;;;;;;;;11.80;99.90;;;;;;8368327;28;19939;-80
2022/10/13 00:04:06;;;;;;;;;;;11.70;99.90;;;;;;8390970;28;19946;-80
2022/10/13 00:08:08;;;;;;;;;;;11.70;99.90;;;;;;8379228;28;19940;-80
2022/10/13 00:12:10;;;;;;;;;;;11.60;99.90;;;;;;8386085;28;20363;-80
2022/10/13 00:16:13;;;;;;;;;;;11.60;99.90;;;;;;8384048;28;19950;-80
2022/10/13 00:25:09;;;;;;;;;;;11.60;99.90;;;;;;8389637;28;19960;-80
2022/10/13 00:29:10;;;;;;;;;;;11.60;99.90;;;;;;8386298;28;19932;-80
2022/10/13 00:33:12;;;;;;;;;;;11.60;99.90;;;;;;8370031;28;20257;-80
2022/10/13 00:37:14;;;;;;;;;;;11.60;99.90;;;;;;8386983;28;20431;-80
2022/10/13 00:41:15;;;;;;;;;;;11.60;99.90;;;;;;8395600;28;19924;-80
2022/10/13 00:45:21;;;;;;;;;;;11.60;99.90;;;;;;8385875;28;19925;-80
2022/10/13 00:49:23;;;;;;;;;;;11.50;99.90;;;;;;8392166;28;20394;-80
2022/10/13 00:53:29;;;;;;;;;;;11.50;99.90;;;;;;8388879;28;19928;-80
2022/10/13 00:57:31;;;;;;;;;;;11.50;99.90;;;;;;8397061;28;20019;-80
2022/10/13 01:01:32;;;;;;;;;;;11.50;99.90;;;;;;8392788;28;20303;-80
2022/10/13 01:05:34;;;;;;;;;;;11.50;99.90;;;;;;8391853;28;20054;-80
2022/10/13 01:09:41;;;;;;;;;;;11.50;99.90;;;;;;8388584;28;20040;-80
2022/10/13 01:13:45;;;;;;;;;;;11.50;99.90;;;;;;8389022;28;20019;-80
2022/10/13 01:18:08;;;;;;;;;;;11.50;99.90;;;;;;8393044;28;19931;-80
2022/10/13 01:22:29;;;;;;;;;;;11.40;99.90;;;;;;8378570;28;20375;-80
2022/10/13 01:26:47;;;;;;;;;;;11.40;99.90;;;;;;8392359;28;19943;-80
2022/10/13 01:30:59;;;;;;;;;;;11.40;99.90;;;;;;8393826;28;19932;-80
2022/10/13 01:35:06;;;;;;;;;;;11.40;99.90;;;;;;8392493;28;19931;-80
2022/10/13 01:39:14;;;;;;;;;;;11.40;99.90;;;;;;8391582;28;20382;-80
2022/10/13 01:43:17;;;;;;;;;;;11.40;99.90;;;;;;8385259;28;19994;-80
2022/10/13 01:47:19;;;;;;;;;;;11.50;99.90;;;;;;8409469;28;19925;-80
2022/10/13 01:51:22;;;;;;;;;;;11.60;99.90;;;;;;8373909;28;19928;-80
2022/10/13 01:55:24;;;;;;;;;;;11.70;99.90;;;;;;8377171;28;19935;-80
2022/10/13 01:59:26;;;;;;;;;;;11.70;99.90;;;;;;8388236;28;20045;-80
2022/10/13 02:03:44;;;;;;;;;;;11.80;99.90;;;;;;8385099;28;20276;-80
2022/10/13 02:07:53;;;;;;;;;;;11.90;99.90;;;;;;8390712;28;19931;-80
2022/10/13 02:11:57;;;;;;;;;;;11.90;99.90;;;;;;8371450;28;19935;-80
2022/10/13 02:15:59;;;;;;;;;;;12.00;99.90;;;;;;8384829;28;19936;-80
2022/10/13 02:20:04;;;;;;;;;;;12.00;99.90;;;;;;8372013;28;19924;-80
2022/10/13 02:24:05;;;;;;;;;;;12.10;99.90;;;;;;8390262;28;19979;-79
2022/10/13 02:28:08;;;;;;;;;;;12.10;99.90;;;;;;8387077;28;19974;-79
2022/10/13 02:32:09;;;;;;;;;;;12.10;99.90;;;;;;8380033;28;19967;-80
2022/10/13 02:36:11;;;;;;;;;;;12.10;99.90;;;;;;8391225;28;20031;-80
2022/10/13 02:40:13;;;;;;;;;;;12.10;99.90;;;;;;8386851;28;20019;-79
2022/10/13 02:44:14;;;;;;;;;;;12.10;99.90;;;;;;8376842;28;19951;-80
2022/10/13 02:48:16;;;;;;;;;;;12.20;99.90;;;;;;8391115;28;19932;-80
2022/10/13 02:52:17;;;;;;;;;;;12.20;99.90;;;;;;8391328;28;20015;-80
2022/10/13 02:56:19;;;;;;;;;;;12.20;99.90;;;;;;8388744;28;20387;-80
2022/10/13 03:00:21;;;;;;;;;;;12.30;99.90;;;;;;8390961;28;19929;-80
2022/10/13 03:04:22;;;;;;;;;;;12.30;99.90;;;;;;8401726;28;19925;-80
2022/10/13 03:08:24;;;;;;;;;;;12.30;99.90;;;;;;8372242;28;19928;-80
2022/10/13 03:12:26;;;;;;;;;;;12.30;99.90;;;;;;8385091;28;19933;-80
2022/10/13 03:21:24;;;;;;;;;;;12.30;99.90;;;;;;8381427;28;20010;-78
2022/10/13 03:25:26;;;;;;;;;;;12.30;99.90;;;;;;8382224;28;19924;-80
2022/10/13 03:29:27;;;;;;;;;;;12.40;99.90;;;;;;8372267;28;19928;-80
2022/10/13 03:33:29;;;;;;;;;;;12.40;99.90;;;;;;8389824;28;20399;-80
2022/10/13 03:37:31;;;;;;;;;;;12.40;99.90;;;;;;8385234;28;20632;-80
2022/10/13 03:41:32;;;;;;;;;;;12.40;99.90;;;;;;8383900;28;19940;-80
2022/10/13 03:45:34;;;;;;;;;;;12.40;99.90;;;;;;8378571;28;19931;-80
2022/10/13 03:49:36;;;;;;;;;;;12.50;99.90;;;;;;8382609;28;19968;-80
2022/10/13 03:53:38;;;;;;;;;;;12.50;99.90;;;;;;8383221;28;19990;-80
2022/10/13 03:57:39;;;;;;;;;;;12.50;99.90;;;;;;8382888;28;20304;-80
2022/10/13 04:01:41;;;;;;;;;;;12.50;99.90;;;;;;8383728;28;19931;-81
2022/10/13 04:05:43;;;;;;;;;;;12.50;99.90;;;;;;8364978;28;20437;-80
2022/10/13 04:09:44;;;;;;;;;;;12.50;99.90;;;;;;8381498;28;19928;-80
2022/10/13 04:13:46;;;;;;;;;;;12.50;99.90;;;;;;8383705;28;19924;-80
2022/10/13 04:17:48;;;;;;;;;;;12.60;99.90;;;;;;8382130;28;19924;-79
2022/10/13 04:21:50;;;;;;;;;;;12.60;99.90;;;;;;8402169;28;19972;-80
2022/10/13 04:25:51;;;;;;;;;;;12.60;99.90;;;;;;8391787;28;19925;-80
2022/10/13 04:29:53;;;;;;;;;;;12.70;99.90;;;;;;8391363;28;19989;-79
2022/10/13 04:33:55;;;;;;;;;;;12.70;99.90;;;;;;8396386;28;20038;-80
2022/10/13 04:37:57;;;;;;;;;;;12.60;99.90;;;;;;8400797;28;19972;-80
2022/10/13 04:41:58;;;;;;;;;;;12.60;99.90;;;;;;8382836;28;20309;-80
2022/10/13 04:46:01;;;;;;;;;;;12.60;99.90;;;;;;8399803;28;20401;-80
2022/10/13 04:50:03;;;;;;;;;;;12.60;99.90;;;;;;8379477;28;19938;-80
2022/10/13 04:54:05;;;;;;;;;;;12.60;99.90;;;;;;8396036;28;20334;-79
2022/10/13 04:58:06;;;;;;;;;;;12.60;99.90;;;;;;8393475;28;20034;-79
2022/10/13 05:02:09;;;;;;;;;;;12.50;99.90;;;;;;8395709;28;19924;-80
2022/10/13 05:06:18;;;;;;;;;;;12.60;99.90;;;;;;8397859;28;19928;-80
2022/10/13 05:10:19;;;;;;;;;;;12.60;99.90;;;;;;8389516;28;19938;-80
2022/10/13 05:14:21;;;;;;;;;;;12.60;99.90;;;;;;8411472;28;19924;-81
2022/10/13 05:18:23;;;;;;;;;;;12.60;99.90;;;;;;8374259;28;19931;-80
2022/10/13 05:22:26;;;;;;;;;;;12.60;99.90;;;;;;8393029;28;19932;-79
2022/10/13 05:26:30;;;;;;;;;;;12.60;99.90;;;;;;8397565;28;20015;-80
2022/10/13 05:30:32;;;;;;;;;;;12.70;99.90;;;;;;8381185;28;20007;-80
2022/10/13 05:34:34;;;;;;;;;;;12.70;99.90;;;;;;8400017;28;19924;-81
2022/10/13 05:38:36;;;;;;;;;;;12.70;99.90;;;;;;8381009;28;20347;-80
2022/10/13 05:42:37;;;;;;;;;;;12.70;99.90;;;;;;8381462;28;20452;-79
2022/10/13 05:46:39;;;;;;;;;;;12.70;99.90;;;;;;8396997;28;20003;-80
2022/10/13 05:50:40;;;;;;;;;;;12.70;99.90;;;;;;8396451;28;19931;-81
2022/10/13 05:54:45;;;;;;;;;;;12.70;99.90;;;;;;8381391;28;19938;-80
2022/10/13 05:58:49;;;;;;;;;;;12.80;99.90;;;;;;8397073;28;19950;-80
2022/10/13 06:02:50;;;;;;;;;;;12.80;99.90;;;;;;8394673;28;19930;-80
2022/10/13 06:06:52;;;;;;;;;;;12.80;99.90;;;;;;8393278;28;19929;-80
2022/10/13 06:10:54;;;;;;;;;;;12.80;99.90;;;;;;8396555;28;20371;-80
2022/10/13 06:14:55;;;;;;;;;;;12.80;99.90;;;;;;8394634;28;20307;-81
2022/10/13 06:18:57;;;;;;;;;;;12.90;99.90;;;;;;8368526;28;19925;-80
2022/10/13 06:22:59;;;;;;;;;;;12.90;99.90;;;;;;8378341;28;19947;-80
2022/10/13 06:27:01;;;;;;;;;;;13.00;99.90;;;;;;8394540;28;19932;-80
2022/10/13 06:31:04;;;;;;;;;;;13.00;99.90;;;;;;8397744;28;19931;-80
2022/10/13 06:35:06;;;;;;;;;;;12.90;99.90;;;;;;8375212;28;19931;-81
2022/10/13 06:39:07;;;;;;;;;;;13.00;99.90;;;;;;8395023;28;19931;-80
2022/10/13 06:43:09;;;;;;;;;;;13.00;99.90;;;;;;8400123;28;19929;-80
2022/10/13 06:47:11;;;;;;;;;;;12.90;99.90;;;;;;8376154;28;20037;-81
2022/10/13 06:51:12;;;;;;;;;;;12.90;99.90;;;;;;8396301;28;19925;-81
2022/10/13 06:55:14;;;;;;;;;;;12.90;99.90;;;;;;8379499;28;19935;-79
2022/10/13 06:59:16;;;;;;;;;;;12.90;99.90;;;;;;8401469;28;20114;-80
2022/10/13 07:03:17;;;;;;;;;;;12.90;99.90;;;;;;8394913;28;20409;-81
2022/10/13 07:07:19;;;;;;;;;;;12.90;99.90;;;;;;8393455;28;19935;-80
2022/10/13 07:11:21;;;;;;;;;;;12.90;99.90;;;;;;8393521;28;19981;-80
2022/10/13 07:15:25;;;;;;;;;;;12.90;99.90;;;;;;8394040;28;20007;-80
2022/10/13 07:19:27;;;;;;;;;;;13.00;99.90;;;;;;8362036;28;20027;-81
2022/10/13 07:23:29;;;;;;;;;;;13.00;99.90;;;;;;8395401;28;20015;-80
2022/10/13 07:27:30;;;;;;;;;;;13.00;99.90;;;;;;8394845;28;19929;-81
2022/10/13 07:31:32;;;;;;;;;;;13.10;99.90;;;;;;8393917;28;19928;-80
2022/10/13 07:35:37;;;;;;;;;;;13.10;99.90;;;;;;8394242;28;19931;-80
2022/10/13 07:39:38;;;;;;;;;;;13.10;99.90;;;;;;8398916;28;19967;-80
2022/10/13 07:43:40;;;;;;;;;;;13.20;99.90;;;;;;8378193;28;20368;-79
2022/10/13 07:47:42;;;;;;;;;;;13.20;99.90;;;;;;8391809;28;19924;-81
2022/10/13 07:51:44;;;;;;;;;;;13.30;99.90;;;;;;8393976;28;19972;-80
2022/10/13 07:55:45;;;;;;;;;;;13.30;99.90;;;;;;8376991;28;19928;-80
2022/10/13 07:59:47;;;;;;;;;;;13.30;99.90;;;;;;8409353;28;20071;-80
2022/10/13 08:03:48;;;;;;;;;;;13.30;99.90;;;;;;8393918;28;20471;-80
2022/10/13 08:07:51;;;;;;;;;;;13.30;99.90;;;;;;8393804;28;19924;-80
2022/10/13 08:11:56;;;;;;;;;;;13.40;99.90;;;;;;8395032;28;19978;-80
2022/10/13 08:16:02;;;;;;;;;;;13.50;99.90;;;;;;8375613;28;19936;-81
2022/10/13 08:20:04;;;;;;;;;;;13.50;99.90;;;;;;8382384;28;20372;-80
2022/10/13 08:24:06;;;;;;;;;;;13.50;99.90;;;;;;8373989;28;19929;-80
2022/10/13 08:28:16;;;;;;;;;;;13.60;99.90;;;;;;8389391;28;19928;-81
2022/10/13 08:32:19;;;;;;;;;;;13.60;99.90;;;;;;8392850;28;19935;-82
2022/10/13 08:36:21;;;;;;;;;;;13.60;99.90;;;;;;8396620;28;20360;-80
2022/10/13 08:40:23;;;;;;;;;;;13.60;99.90;;;;;;8390997;28;19960;-80
2022/10/13 08:44:28;;;;;;;;;;;13.70;99.90;;;;;;8395079;28;20015;-80
2022/10/13 08:48:49;;;;;;;;;;;13.60;99.90;;;;;;8376577;28;20367;-81
2022/10/13 08:53:00;;;;;;;;;;;13.70;99.90;;;;;;8391420;28;19929;-80
2022/10/13 08:57:03;;;;;;;;;;;13.70;99.90;;;;;;8389390;28;20352;-81
2022/10/13 09:01:05;;;;;;;;;;;13.70;99.90;;;;;;8392850;28;19969;-81
2022/10/13 09:05:11;;;;;;;;;;;13.80;99.90;;;;;;8383999;28;20397;-81
2022/10/13 09:09:14;;;;;;;;;;;13.80;99.90;;;;;;8374036;28;20731;-81
2022/10/13 09:13:16;;;;;;;;;;;13.80;99.90;;;;;;8391555;28;19924;-80
2022/10/13 09:17:19;;;;;;;;;;;13.80;99.90;;;;;;8380536;28;19958;-81
2022/10/13 09:21:23;;;;;;;;;;;13.80;99.90;;;;;;8379803;28;19984;-82
2022/10/13 09:25:24;;;;;;;;;;;13.90;99.90;;;;;;8383002;28;19975;-81
2022/10/13 09:29:26;;;;;;;;;;;13.90;99.90;;;;;;8403025;28;19931;-81
2022/10/13 09:33:28;;;;;;;;;;;13.90;99.90;;;;;;8397413;28;20276;-81
2022/10/13 09:37:29;;;;;;;;;;;14.00;99.90;;;;;;8374357;28;20279;-80
2022/10/13 09:41:31;;;;;;;;;;;14.10;99.90;;;;;;8398280;28;20074;-81
2022/10/13 09:45:33;;;;;;;;;;;14.20;99.90;;;;;;8379670;28;19924;-81
2022/10/13 09:49:35;;;;;;;;;;;14.30;99.90;;;;;;8381701;28;19924;-81
2022/10/13 09:53:38;;;;;;;;;;;14.30;99.90;;;;;;8398194;28;19931;-81
2022/10/13 09:57:48;;;;;;;;;;;14.30;99.90;;;;;;8374495;28;19931;-82
2022/10/13 10:01:51;;;;;;;;;;;14.30;99.90;;;;;;8384340;28;20016;-81
2022/10/13 10:05:58;;;;;;;;;;;14.40;99.90;;;;;;8372414;28;19924;-81
2022/10/13 10:10:04;;;;;;;;;;;14.40;99.90;;;;;;8378727;28;19968;-81
2022/10/13 10:14:20;;;;;;;;;;;14.40;99.90;;;;;;8393924;28;19924;-82
2022/10/13 10:18:27;;;;;;;;;;;14.50;99.90;;;;;;8388274;28;20330;-80
2022/10/13 10:22:47;;;;;;;;;;;14.60;99.90;;;;;;8397344;28;20285;-80
2022/10/13 10:26:55;;;;;;;;;;;14.70;99.90;;;;;;8395014;28;20118;-81
2022/10/13 10:31:17;;;;;;;;;;;14.80;99.90;;;;;;8400086;28;19964;-78
2022/10/13 10:35:25;;;;;;;;;;;14.90;99.90;;;;;;8390321;28;19931;-80
2022/10/13 10:39:29;;;;;;;;;;;15.00;99.90;;;;;;8389651;28;20945;-80
2022/10/13 10:43:31;;;;;;;;;;;15.00;99.90;;;;;;8382857;28;20011;-84
2022/10/13 10:47:38;;;;;;;;;;;15.00;99.90;;;;;;8383318;28;20275;-83
2022/10/13 10:51:40;;;;;;;;;;;15.00;99.90;;;;;;8397644;28;20243;-83
2022/10/13 10:55:46;;;;;;;;;;;15.00;99.90;;;;;;8392218;28;19935;-83
2022/10/13 10:59:47;;;;;;;;;;;14.90;99.90;;;;;;8396451;28;20027;-83
2022/10/13 11:04:10;;;;;;;;;;;14.90;99.90;;;;;;8390843;28;20015;-83
2022/10/13 11:08:24;;;;;;;;;;;14.80;99.90;;;;;;8391609;28;19975;-82
2022/10/13 11:12:44;;;;;;;;;;;14.80;99.90;;;;;;8401934;28;20007;-83
2022/10/13 11:17:01;;;;;;;;;;;14.80;99.90;;;;;;8397745;28;20291;-83
2022/10/13 11:21:03;;;;;;;;;;;14.80;99.90;;;;;;8417196;28;20340;-83
2022/10/13 11:25:23;;;;;;;;;;;14.90;99.90;;;;;;8399337;28;19925;-84
2022/10/13 11:29:47;;;;;;;;;;;14.80;99.90;;;;;;8384739;28;19932;-82
2022/10/13 11:33:49;;;;;;;;;;;14.90;99.90;;;;;;8377578;28;19924;-83
2022/10/13 11:37:51;;;;;;;;;;;14.90;99.90;;;;;;8394357;28;19931;-83
2022/10/13 11:42:22;;;;;;;;;;;14.90;99.90;;;;;;8395102;28;20426;-82
2022/10/13 11:46:44;;;;;;;;;;;14.90;99.90;;;;;;8392148;28;20308;-83
2022/10/13 11:51:05;;;;;;;;;;;14.80;99.90;;;;;;8397473;28;19931;-83
2022/10/13 11:55:13;;;;;;;;;;;14.80;99.90;;;;;;8382681;28;19950;-82
2022/10/13 11:59:19;;;;;;;;;;;14.80;99.90;;;;;;8366187;28;19971;-82
2022/10/13 12:03:24;;;;;;;;;;;14.80;99.90;;;;;;8373059;28;19931;-83
2022/10/13 12:07:30;;;;;;;;;;;14.80;99.90;;;;;;8356168;28;20096;-83
2022/10/13 12:11:34;;;;;;;;;;;14.80;99.90;;;;;;8369495;28;19925;-83
2022/10/13 12:15:38;;;;;;;;;;;14.70;99.90;;;;;;8366122;28;20372;-83
2022/10/13 12:19:40;;;;;;;;;;;14.70;99.90;;;;;;8368949;28;19929;-83
2022/10/13 12:23:42;;;;;;;;;;;14.70;99.90;;;;;;8365241;28;20612;-83
2022/10/13 12:27:47;;;;;;;;;;;14.60;99.90;;;;;;8356847;28;20103;-82
2022/10/13 12:31:49;;;;;;;;;;;14.60;99.90;;;;;;8367510;28;20031;-83
2022/10/13 12:35:51;;;;;;;;;;;14.60;99.90;;;;;;8381830;28;20425;-83
2022/10/13 12:39:54;;;;;;;;;;;14.60;99.90;;;;;;8390243;28;19932;-83
2022/10/13 12:43:56;;;;;;;;;;;14.60;99.90;;;;;;8356984;28;19931;-83
2022/10/13 12:48:01;;;;;;;;;;;14.60;99.90;;;;;;8364992;28;19925;-83
2022/10/13 12:52:05;;;;;;;;;;;14.60;99.90;;;;;;8346697;28;19963;-84
2022/10/13 12:56:16;;;;;;;;;;;14.60;99.90;;;;;;8372850;28;20023;-83
2022/10/13 13:00:17;;;;;;;;;;;14.50;99.90;;;;;;8364838;28;20325;-83
2022/10/13 13:04:22;;;;;;;;;;;14.50;99.90;;;;;;8376124;28;19972;-84
2022/10/13 13:08:25;;;;;;;;;;;14.50;99.90;;;;;;8375208;28;19929;-82
2022/10/13 13:12:28;;;;;;;;;;;14.50;99.90;;;;;;8350846;28;19931;-83
2022/10/13 13:16:29;;;;;;;;;;;14.50;99.90;;;;;;8369643;28;19939;-82
2022/10/13 13:20:32;;;;;;;;;;;14.50;99.90;;;;;;8376855;28;19929;-83
2022/10/13 13:34:42;;;;;;;;;;;14.70;99.90;;;;;;8375795;28;19979;-83
2022/10/13 13:38:44;;;;;;;;;;;14.80;99.90;;;;;;8370227;28;20001;-82
2022/10/13 13:42:46;;;;;;;;;;;14.90;99.90;;;;;;8376885;28;20410;-83
2022/10/13 13:46:47;;;;;;;;;;;15.00;99.90;;;;;;8379787;28;19956;-84
2022/10/13 13:50:49;;;;;;;;;;;15.00;99.90;;;;;;8370489;28;19928;-83
2022/10/13 13:54:51;;;;;;;;;;;15.00;99.90;;;;;;8370981;28;19931;-83
2022/10/13 13:58:53;;;;;;;;;;;15.00;99.90;;;;;;8376132;28;19929;-83
2022/10/13 14:02:55;;;;;;;;;;;15.00;99.90;;;;;;8376246;28;19947;-82
2022/10/13 14:06:57;;;;;;;;;;;15.00;99.90;;;;;;8371572;28;19928;-80
2022/10/13 14:10:59;;;;;;;;;;;15.00;99.90;;;;;;8355704;28;20422;-80
2022/10/13 14:15:00;;;;;;;;;;;15.00;99.90;;;;;;8384790;28;19928;-81
2022/10/13 14:19:02;;;;;;;;;;;14.90;99.90;;;;;;8370338;28;19925;-80
2022/10/13 14:23:04;;;;;;;;;;;15.00;99.90;;;;;;8352208;28;19932;-81
2022/10/13 14:27:07;;;;;;;;;;;15.00;99.90;;;;;;8371818;28;19939;-82
2022/10/13 14:31:10;;;;;;;;;;;14.90;99.90;;;;;;8378739;28;19971;-81
2022/10/13 14:40:08;;;;;;;;;;;14.90;99.90;;;;;;8381196;28;19924;-80
2022/10/13 14:44:11;;;;;;;;;;;14.90;99.90;;;;;;8376508;28;20572;-81
2022/10/13 14:48:13;;;;;;;;;;;14.90;99.90;;;;;;8371669;28;20417;-82
2022/10/13 14:52:15;;;;;;;;;;;14.90;99.90;;;;;;8373577;28;19925;-81
2022/10/13 14:56:24;;;;;;;;;;;14.90;99.90;;;;;;8367539;28;19934;-81
2022/10/13 15:00:26;;;;;;;;;;;15.00;99.90;;;;;;8378034;28;19932;-81
2022/10/13 15:04:28;;;;;;;;;;;15.00;99.90;;;;;;8373644;28;19925;-80
2022/10/13 15:08:29;;;;;;;;;;;15.00;99.90;;;;;;8371829;28;19964;-82
2022/10/13 15:12:31;;;;;;;;;;;14.90;99.90;;;;;;8372841;28;20327;-82
2022/10/13 15:16:33;;;;;;;;;;;14.90;99.90;;;;;;8376009;28;20392;-81
2022/10/13 15:20:34;;;;;;;;;;;14.90;99.90;;;;;;8371756;28;20362;-81
2022/10/13 15:24:36;;;;;;;;;;;14.90;99.90;;;;;;8370223;28;20295;-82
2022/10/13 15:28:42;;;;;;;;;;;14.90;99.90;;;;;;8373141;28;19931;-81
2022/10/13 15:32:46;;;;;;;;;;;15.00;99.90;;;;;;8367689;28;20331;-81
2022/10/13 15:36:48;;;;;;;;;;;15.00;99.90;;;;;;8373151;28;20332;-81
2022/10/13 15:40:50;;;;;;;;;;;14.90;99.90;;;;;;8377587;28;19967;-81
2022/10/13 15:44:51;;;;;;;;;;;15.00;99.90;;;;;;8376805;28;19932;-82
2022/10/13 15:49:11;;;;;;;;;;;14.90;99.90;;;;;;8367525;28;19929;-81
2022/10/13 15:53:12;;;;;;;;;;;14.90;99.90;;;;;;8370757;28;20379;-82
2022/10/13 15:57:14;;;;;;;;;;;15.00;99.90;;;;;;8371982;28;20043;-82
2022/10/13 16:01:15;;;;;;;;;;;14.90;99.90;;;;;;8375447;28;19928;-82
2022/10/13 16:05:17;;;;;;;;;;;14.90;99.90;;;;;;8371126;28;20357;-82
2022/10/13 16:09:19;;;;;;;;;;;14.90;99.90;;;;;;8371202;28;20342;-82
2022/10/13 16:13:21;;;;;;;;;;;14.90;99.90;;;;;;8374169;28;19928;-82
2022/10/13 16:17:22;;;;;;;;;;;14.90;99.90;;;;;;8363431;28;19945;-81
2022/10/13 16:21:25;;;;;;;;;;;14.90;99.90;;;;;;8366485;28;19928;-81
2022/10/13 16:25:28;;;;;;;;;;;14.90;99.90;;;;;;8364617;28;19932;-81
2022/10/13 16:29:29;;;;;;;;;;;14.90;99.90;;;;;;8366047;28;19972;-81
2022/10/13 16:33:33;;;;;;;;;;;14.90;99.90;;;;;;8367663;28;19933;-81
2022/10/13 16:37:34;;;;;;;;;;;15.00;99.90;;;;;;8369643;28;19935;-81
2022/10/13 16:41:37;;;;;;;;;;;14.90;99.90;;;;;;8374848;28;19925;-81
2022/10/13 16:45:39;;;;;;;;;;;14.90;99.90;;;;;;8381639;28;20011;-82
2022/10/13 16:49:59;;;;;;;;;;;14.90;99.90;;;;;;8376772;28;20310;-82
2022/10/13 16:54:01;;;;;;;;;;;14.80;99.90;;;;;;8390850;28;19925;-82
2022/10/13 16:58:04;;;;;;;;;;;14.80;99.90;;;;;;8374571;28;19924;-82
2022/10/13 17:02:11;;;;;;;;;;;14.80;99.90;;;;;;8378800;28;19930;-82
2022/10/13 17:06:13;;;;;;;;;;;14.70;99.90;;;;;;8378307;28;19979;-80
2022/10/13 17:10:14;;;;;;;;;;;14.70;99.90;;;;;;8364569;28;20507;-80
2022/10/13 17:14:18;;;;;;;;;;;14.60;99.90;;;;;;8396403;28;20023;-82
2022/10/13 17:18:20;;;;;;;;;;;14.60;99.90;;;;;;8399294;28;19931;-83
2022/10/13 17:22:22;;;;;;;;;;;14.60;99.90;;;;;;8377250;28;20011;-81
2022/10/13 17:26:24;;;;;;;;;;;14.60;99.90;;;;;;8386583;28;20034;-80
2022/10/13 17:30:25;;;;;;;;;;;14.60;99.90;;;;;;8370890;28;19925;-80
2022/10/13 17:34:27;;;;;;;;;;;14.50;99.90;;;;;;8376872;28;19924;-80
2022/10/13 17:38:29;;;;;;;;;;;14.50;99.90;;;;;;8377245;28;20435;-81
2022/10/13 17:42:31;;;;;;;;;;;14.50;99.90;;;;;;8374327;28;20011;-80
2022/10/13 17:46:32;;;;;;;;;;;14.40;99.90;;;;;;8400458;28;20030;-82
2022/10/13 17:50:38;;;;;;;;;;;14.30;99.90;;;;;;8388853;28;19932;-81
2022/10/13 17:54:40;;;;;;;;;;;14.20;99.90;;;;;;8399096;28;19951;-80
2022/10/13 17:58:42;;;;;;;;;;;14.10;99.90;;;;;;8372219;28;19943;-83
2022/10/13 18:02:43;;;;;;;;;;;14.10;99.90;;;;;;8382547;28;19924;-82
2022/10/13 18:06:45;;;;;;;;;;;14.00;99.90;;;;;;8373694;28;20722;-83
2022/10/13 18:10:47;;;;;;;;;;;14.00;99.90;;;;;;8376545;28;19935;-84
2022/10/13 18:15:08;;;;;;;;;;;14.00;99.90;;;;;;8374037;28;19984;-84
2022/10/13 18:19:10;;;;;;;;;;;13.90;99.90;;;;;;8372669;28;19929;-83
2022/10/13 18:23:11;;;;;;;;;;;13.80;99.90;;;;;;8380112;28;20019;-83
2022/10/13 18:27:13;;;;;;;;;;;13.80;99.90;;;;;;8364862;28;19925;-83
2022/10/13 18:31:15;;;;;;;;;;;13.80;99.90;;;;;;8378043;28;20011;-83
2022/10/13 18:35:16;;;;;;;;;;;13.80;99.90;;;;;;8380201;28;19928;-83
2022/10/13 18:39:21;;;;;;;;;;;13.80;99.90;;;;;;8376451;28;19966;-84
2022/10/13 18:43:22;;;;;;;;;;;13.70;99.90;;;;;;8390656;28;19950;-83
2022/10/13 18:47:24;;;;;;;;;;;13.70;99.90;;;;;;8389538;28;20331;-83
2022/10/13 18:51:27;;;;;;;;;;;13.70;99.90;;;;;;8377527;28;20003;-84
2022/10/13 18:55:35;;;;;;;;;;;13.70;99.90;;;;;;8398000;28;19928;-84
2022/10/13 18:59:37;;;;;;;;;;;13.70;99.90;;;;;;8382935;28;19933;-83
2022/10/13 19:03:39;;;;;;;;;;;13.60;99.90;;;;;;8375194;28;19925;-83
2022/10/13 19:07:41;;;;;;;;;;;13.50;99.90;;;;;;8382501;28;19924;-84
2022/10/13 19:11:42;;;;;;;;;;;13.50;99.90;;;;;;8380311;28;20027;-84
2022/10/13 19:15:44;;;;;;;;;;;13.50;99.90;;;;;;8360831;28;19934;-83
2022/10/13 19:19:46;;;;;;;;;;;13.40;99.90;;;;;;8389380;28;19929;-83
2022/10/13 19:23:50;;;;;;;;;;;13.40;99.90;;;;;;8372975;28;19933;-83
2022/10/13 19:27:52;;;;;;;;;;;13.40;99.90;;;;;;8374170;28;20016;-84
2022/10/13 19:31:54;;;;;;;;;;;13.30;99.90;;;;;;8374332;28;19951;-83
2022/10/13 19:35:55;;;;;;;;;;;13.30;99.90;;;;;;8351373;28;19924;-84
2022/10/13 19:39:57;;;;;;;;;;;13.40;99.90;;;;;;8364668;28;20422;-83
2022/10/13 19:43:59;;;;;;;;;;;13.40;99.90;;;;;;8371388;28;20395;-84
2022/10/13 19:48:01;;;;;;;;;;;13.30;99.90;;;;;;8372850;28;19924;-84
2022/10/13 19:52:02;;;;;;;;;;;13.30;99.90;;;;;;8360795;28;20245;-83
2022/10/13 19:56:04;;;;;;;;;;;13.30;99.90;;;;;;8380717;28;19975;-84
2022/10/13 20:00:06;;;;;;;;;;;13.30;99.90;;;;;;8376703;28;19925;-83
2022/10/13 20:04:08;;;;;;;;;;;13.20;99.90;;;;;;8386134;28;20019;-83
2022/10/13 20:08:10;;;;;;;;;;;13.20;99.90;;;;;;8378175;28;19925;-83
2022/10/13 20:12:12;;;;;;;;;;;13.20;99.90;;;;;;8372599;28;20016;-83
2022/10/13 20:16:17;;;;;;;;;;;13.10;99.90;;;;;;8371304;28;20293;-83
2022/10/13 20:20:19;;;;;;;;;;;13.00;99.90;;;;;;8372180;28;19925;-83
2022/10/13 20:24:23;;;;;;;;;;;13.00;99.90;;;;;;8368513;28;21998;-83
2022/10/13 20:28:25;;;;;;;;;;;12.90;99.90;;;;;;8373908;28;20011;-83
2022/10/13 20:32:26;;;;;;;;;;;12.90;99.90;;;;;;8369152;28;19951;-84
2022/10/13 20:36:28;;;;;;;;;;;12.80;99.90;;;;;;8394442;28;19939;-83
2022/10/13 20:40:30;;;;;;;;;;;12.70;99.90;;;;;;8373669;28;19925;-83
2022/10/13 20:44:32;;;;;;;;;;;12.70;99.90;;;;;;8375387;28;19924;-83
2022/10/13 20:48:35;;;;;;;;;;;12.60;99.90;;;;;;8389691;28;20135;-83
2022/10/13 20:52:56;;;;;;;;;;;12.60;99.90;;;;;;8379828;28;19929;-84
2022/10/13 20:56:58;;;;;;;;;;;12.50;99.90;;;;;;8376834;28;19925;-83
2022/10/13 21:01:00;;;;;;;;;;;12.40;99.90;;;;;;8361735;28;19932;-83
2022/10/13 21:05:02;;;;;;;;;;;12.40;99.90;;;;;;8377093;28;20517;-83
2022/10/13 21:09:04;;;;;;;;;;;12.30;99.90;;;;;;8398579;28;19979;-83
2022/10/13 21:13:06;;;;;;;;;;;12.30;99.90;;;;;;8375221;28;20019;-83
2022/10/13 21:17:07;;;;;;;;;;;12.30;99.90;;;;;;8404844;28;19970;-83
2022/10/13 21:21:10;;;;;;;;;;;12.20;99.90;;;;;;8401874;28;20015;-83
2022/10/13 21:25:12;;;;;;;;;;;12.20;99.90;;;;;;8400209;28;19970;-83
2022/10/13 21:29:14;;;;;;;;;;;12.20;99.90;;;;;;8400923;28;19970;-83
2022/10/13 21:33:16;;;;;;;;;;;12.20;99.90;;;;;;8402571;28;19924;-83
2022/10/13 21:37:17;;;;;;;;;;;12.20;99.90;;;;;;8381366;28;20269;-84
2022/10/13 21:41:20;;;;;;;;;;;12.10;99.90;;;;;;8398171;28;19924;-84
2022/10/13 21:45:21;;;;;;;;;;;12.10;99.90;;;;;;8404655;28;19963;-83
2022/10/13 21:49:23;;;;;;;;;;;12.10;99.90;;;;;;8390261;28;19931;-84
2022/10/13 21:53:24;;;;;;;;;;;12.10;99.90;;;;;;8402925;28;19936;-84
2022/10/13 21:57:26;;;;;;;;;;;12.00;99.90;;;;;;8399827;28;20025;-83
2022/10/13 22:01:28;;;;;;;;;;;12.00;99.90;;;;;;8378655;28;19928;-83
2022/10/13 22:05:29;;;;;;;;;;;12.00;99.90;;;;;;8384927;28;19925;-83
2022/10/13 22:09:31;;;;;;;;;;;12.00;99.90;;;;;;8402760;28;20015;-83
2022/10/13 22:13:35;;;;;;;;;;;11.90;99.90;;;;;;8379411;28;20310;-83
2022/10/13 22:17:37;;;;;;;;;;;11.90;99.90;;;;;;8394491;28;20019;-83
2022/10/13 22:21:42;;;;;;;;;;;11.90;99.90;;;;;;8388348;28;20387;-83
2022/10/13 22:25:45;;;;;;;;;;;11.90;99.90;;;;;;8402410;28;19931;-84
2022/10/13 22:29:46;;;;;;;;;;;11.80;99.90;;;;;;8399044;28;19928;-83
2022/10/13 22:33:52;;;;;;;;;;;11.80;99.90;;;;;;8404247;28;19930;-83
2022/10/13 22:37:53;;;;;;;;;;;11.80;99.90;;;;;;8396065;28;19924;-84
2022/10/13 22:41:55;;;;;;;;;;;11.80;99.90;;;;;;8397063;28;19990;-83
2022/10/13 22:45:57;;;;;;;;;;;11.80;99.90;;;;;;8413077;28;19946;-83
2022/10/13 22:49:59;;;;;;;;;;;11.80;99.90;;;;;;8401097;28;19936;-83
2022/10/13 22:54:01;;;;;;;;;;;11.80;99.90;;;;;;8404199;28;19936;-83
2022/10/13 22:58:02;;;;;;;;;;;11.80;99.90;;;;;;8377859;28;19924;-83
2022/10/13 23:02:04;;;;;;;;;;;11.80;99.90;;;;;;8413524;28;19939;-83
2022/10/13 23:06:06;;;;;;;;;;;11.80;99.90;;;;;;8390208;28;19930;-83
2022/10/13 23:10:08;;;;;;;;;;;11.70;99.90;;;;;;8382828;28;19928;-83
2022/10/13 23:14:10;;;;;;;;;;;11.70;99.90;;;;;;8397006;28;20419;-82
2022/10/13 23:18:11;;;;;;;;;;;11.70;99.90;;;;;;8387919;28;19944;-83
2022/10/13 23:22:13;;;;;;;;;;;11.60;99.90;;;;;;8396478;28;20283;-83
2022/10/13 23:26:15;;;;;;;;;;;11.60;99.90;;;;;;8393064;28;20019;-83
2022/10/13 23:30:17;;;;;;;;;;;11.60;99.90;;;;;;8391033;28;19924;-83
2022/10/13 23:34:20;;;;;;;;;;;11.50;99.90;;;;;;8399965;28;19936;-83
2022/10/13 23:38:21;;;;;;;;;;;11.50;99.90;;;;;;8405709;28;20011;-83
2022/10/13 23:42:23;;;;;;;;;;;11.50;99.90;;;;;;8398927;28;19924;-83
2022/10/13 23:46:25;;;;;;;;;;;11.40;99.90;;;;;;8377244;28;19954;-83
2022/10/13 23:50:26;;;;;;;;;;;11.40;99.90;;;;;;8393834;28;19925;-83
2022/10/13 23:54:29;;;;;;;;;;;11.40;99.90;;;;;;8408071;28;19924;-83
2022/10/13 23:58:31;;;;;;;;;;;11.30;99.90;;;;;;8400259;28;20022;-83
